KMPZ/MPZ METAR and TAF weather

Enter ICAO airport designator
Station Type Date Time Source
KMPZ METAR 2020/07/15 03:35 UTC NOAA

KMPZ 150335Z AUTO 16005KT 10SM CLR 26/22 A2994 RMK AO2


Station Type Date Time Source
KMPZ Decoded METAR 2020/07/15 03:35 UTC NOAA

Mount Pleasant, Mount Pleasant Municipal Airport, IA, United States (KMPZ) 40-56-48N 091-30-40W
Jul 14, 2020 - 11:35 PM EDT / 2020.07.15 0335 UTC
Wind: from the SSE (160 degrees) at 6 MPH (5 KT):0
Visibility: 10 mile(s):0
Sky conditions: clear
Temperature: 78 F (26 C)
Dew Point: 71 F (22 C)
Relative Humidity: 78%
Pressure (altimeter): 29.94 in. Hg (1013 hPa)
ob: KMPZ 150335Z AUTO 16005KT 10SM CLR 26/22 A2994 RMK AO2
cycle: 3

Station Type Date Time Source
KMPZ TAF UTC NOAA

Error!

Example: see airport list